Time;durP1;ratioP1;P1;durP2;ratioP2;P2;SDS_P1;SDS_P2;PMS_P1;PMS_P2;Temp;Humidity;BMP_temperature;BMP_pressure;BME280_temperature;BME280_humidity;BME280_pressure;Samples;Min_cycle;Max_cycle;Signal;HPM_P1;HPM_P2
2021/11/30 00:00:56;;;;;;;50.30;33.40;;;;;;;0.20;100.00;97735.47;2037813;29;20262;-73
2021/11/30 00:01:59;;;;;;;52.20;34.42;;;;;;;0.20;100.00;97741.50;2030649;29;20764;-73
2021/11/30 00:03:01;;;;;;;52.22;34.40;;;;;;;0.19;100.00;97742.56;2038608;29;20233;-73
2021/11/30 00:04:02;;;;;;;52.88;33.55;;;;;;;0.20;100.00;97743.34;2038848;28;20253;-73
2021/11/30 00:05:04;;;;;;;51.42;33.58;;;;;;;0.20;100.00;97738.09;2039431;28;20302;-73
2021/11/30 00:06:06;;;;;;;49.58;32.15;;;;;;;0.17;100.00;97738.59;2038450;29;20701;-73
2021/11/30 00:07:11;;;;;;;49.95;33.40;;;;;;;0.20;100.00;97738.09;2030927;29;20231;-73
2021/11/30 00:08:13;;;;;;;53.03;34.10;;;;;;;0.15;100.00;97738.88;2030980;29;20239;-73
2021/11/30 00:10:46;;;;;;;49.47;33.17;;;;;;;0.20;100.00;97738.88;2038593;28;20658;-73
2021/11/30 00:11:47;;;;;;;48.90;32.30;;;;;;;0.23;100.00;97737.56;2039416;28;20681;-72
2021/11/30 00:12:49;;;;;;;50.30;32.23;;;;;;;0.26;100.00;97739.66;2039227;28;20619;-72
2021/11/30 00:13:56;;;;;;;46.70;33.38;;;;;;;0.28;100.00;97751.47;2038630;29;20322;-72
2021/11/30 00:14:57;;;;;;;49.83;32.40;;;;;;;0.28;100.00;97740.22;2038115;29;21017;-71
2021/11/30 00:15:59;;;;;;;45.43;32.00;;;;;;;0.23;100.00;97746.22;2037887;29;20648;-73
2021/11/30 00:16:59;;;;;;;50.10;33.55;;;;;;;0.21;100.00;97753.56;2038461;29;20529;-72
2021/11/30 00:18:02;;;;;;;53.30;34.03;;;;;;;0.20;100.00;97740.72;2038350;29;20230;-73
2021/11/30 00:19:02;;;;;;;46.10;31.73;;;;;;;0.27;100.00;97744.66;2038727;29;20222;-72
2021/11/30 00:20:05;;;;;;;44.30;31.27;;;;;;;0.28;100.00;97732.34;2038598;29;20246;-72
2021/11/30 00:21:11;;;;;;;47.22;31.77;;;;;;;0.26;100.00;97737.03;2038434;29;20325;-71
2021/11/30 00:22:19;;;;;;;44.80;30.17;;;;;;;0.24;100.00;97736.50;2037629;29;20239;-72
2021/11/30 00:23:22;;;;;;;48.72;31.80;;;;;;;0.24;100.00;97745.16;2031549;29;20219;-72
2021/11/30 00:24:27;;;;;;;41.70;29.17;;;;;;;0.22;100.00;97747.28;2037859;29;20334;-72
2021/11/30 00:25:29;;;;;;;45.13;29.73;;;;;;;0.26;100.00;97758.00;2038562;29;20309;-72
2021/11/30 00:26:30;;;;;;;45.70;31.58;;;;;;;0.27;100.00;97749.91;2039231;28;20682;-71
2021/11/30 00:27:34;;;;;;;46.65;30.00;;;;;;;0.29;100.00;97762.75;2039170;28;20250;-71
2021/11/30 00:28:36;;;;;;;45.33;31.48;;;;;;;0.25;100.00;97756.44;2038956;28;20231;-71
2021/11/30 00:29:38;;;;;;;45.53;31.17;;;;;;;0.24;100.00;97763.53;2038757;28;20669;-73
2021/11/30 00:30:41;;;;;;;44.90;31.15;;;;;;;0.23;100.00;97761.16;2038654;29;20230;-73
2021/11/30 00:31:41;;;;;;;43.72;31.10;;;;;;;0.20;100.00;97769.56;2038654;29;20230;-73
2021/11/30 00:32:43;;;;;;;45.60;31.30;;;;;;;0.15;100.00;97759.06;2039099;28;20250;-73
2021/11/30 00:33:45;;;;;;;44.25;31.42;;;;;;;0.14;100.00;97760.13;2038404;29;20233;-73
2021/11/30 00:34:48;;;;;;;44.58;31.05;;;;;;;0.15;100.00;97766.94;2038416;29;20725;-73
2021/11/30 00:35:49;;;;;;;46.60;32.35;;;;;;;0.08;100.00;97764.56;2039194;28;20231;-74
2021/11/30 00:36:51;;;;;;;46.75;32.65;;;;;;;0.10;100.00;97774.81;2038984;28;20309;-73
2021/11/30 00:37:52;;;;;;;47.67;32.65;;;;;;;0.08;100.00;97788.16;2037959;29;20257;-73
2021/11/30 00:38:55;;;;;;;44.90;32.87;;;;;;;0.09;100.00;97778.44;2030661;29;20242;-73
2021/11/30 00:39:56;;;;;;;48.17;32.05;;;;;;;0.07;100.00;97775.31;2038202;29;20283;-74
2021/11/30 00:41:02;;;;;;;47.47;32.97;;;;;;;0.07;100.00;97791.03;2039146;28;20234;-72
2021/11/30 00:42:05;;;;;;;51.85;33.10;;;;;;;0.02;100.00;97789.22;2038162;29;20313;-73
2021/11/30 00:43:08;;;;;;;46.00;32.38;;;;;;;0.01;100.00;97792.09;2030884;29;20227;-73
2021/11/30 00:44:09;;;;;;;43.33;31.27;;;;;;;-0.01;100.00;97785.25;2030585;29;20725;-73
2021/11/30 00:45:14;;;;;;;49.23;32.47;;;;;;;0.03;100.00;97792.63;2038328;29;20600;-73
2021/11/30 00:46:16;;;;;;;48.15;32.28;;;;;;;-0.01;100.00;97795.72;2038265;29;20325;-73
2021/11/30 00:47:19;;;;;;;49.03;33.88;;;;;;;-0.05;100.00;97796.53;2038388;29;20230;-72
2021/11/30 00:48:30;;;;;;;46.83;33.28;;;;;;;-0.03;100.00;97797.03;2038201;29;20246;-72
2021/11/30 00:49:35;;;;;;;44.15;31.85;;;;;;;-0.03;100.00;97800.44;2038081;28;20234;-73
2021/11/30 00:50:39;;;;;;;45.58;31.70;;;;;;;-0.06;100.00;97814.09;2039009;28;20275;-72
2021/11/30 00:51:43;;;;;;;46.72;33.10;;;;;;;-0.12;100.00;97804.63;2037802;29;20231;-72
2021/11/30 00:52:44;;;;;;;46.15;32.53;;;;;;;-0.13;100.00;97829.25;2030811;29;20231;-72
2021/11/30 00:53:48;;;;;;;47.03;30.90;;;;;;;-0.13;100.00;97810.13;2030730;29;20243;-72
2021/11/30 00:54:50;;;;;;;48.13;33.38;;;;;;;-0.15;100.00;97814.84;2038427;29;20785;-72
2021/11/30 00:55:53;;;;;;;42.92;33.92;;;;;;;-0.16;100.00;97845.50;2038869;28;20269;-72
2021/11/30 00:56:55;;;;;;;47.33;34.88;;;;;;;-0.18;100.00;97821.38;2037310;29;20227;-72
2021/11/30 00:57:57;;;;;;;47.38;33.63;;;;;;;-0.19;100.00;97827.66;2030519;29;20235;-72
2021/11/30 00:58:58;;;;;;;50.95;35.65;;;;;;;-0.15;100.00;97820.88;2038298;29;20659;-72
2021/11/30 00:59:59;;;;;;;44.23;33.40;;;;;;;-0.17;100.00;97817.72;2038388;29;20241;-71
2021/11/30 01:01:02;;;;;;;49.15;34.20;;;;;;;-0.18;100.00;97837.09;2030745;29;20668;-73
2021/11/30 01:02:04;;;;;;;48.80;34.42;;;;;;;-0.18;100.00;97831.84;2030820;29;20683;-72
2021/11/30 01:03:06;;;;;;;48.70;33.60;;;;;;;-0.18;100.00;97837.09;2038475;29;20223;-73
2021/11/30 01:04:10;;;;;;;46.08;33.78;;;;;;;-0.19;100.00;97834.72;2037868;28;20289;-72
2021/11/30 01:05:13;;;;;;;43.15;34.15;;;;;;;-0.25;100.00;97831.31;2038881;28;20587;-72
2021/11/30 01:06:15;;;;;;;50.45;37.30;;;;;;;-0.22;100.00;97851.75;2038947;28;20557;-73
2021/11/30 01:07:15;;;;;;;45.00;36.08;;;;;;;-0.22;100.00;97850.97;2038352;29;20226;-72
2021/11/30 01:08:17;;;;;;;49.43;36.43;;;;;;;-0.22;100.00;97856.22;2038238;29;20236;-72
2021/11/30 01:09:18;;;;;;;39.53;32.78;;;;;;;-0.17;100.00;97857.03;2038289;29;20285;-73
2021/11/30 01:10:21;;;;;;;48.75;36.42;;;;;;;-0.17;100.00;97858.88;2030524;29;20227;-72
2021/11/30 01:11:22;;;;;;;43.13;35.30;;;;;;;-0.19;100.00;97855.69;2037813;29;20265;-73
2021/11/30 01:12:24;;;;;;;43.87;33.93;;;;;;;-0.24;100.00;97847.84;2038254;29;20274;-73
2021/11/30 01:13:25;;;;;;;44.83;35.55;;;;;;;-0.22;100.00;97850.97;2038056;29;20238;-72
2021/11/30 01:14:27;;;;;;;49.00;35.60;;;;;;;-0.26;100.00;97850.72;2038074;29;20265;-73
2021/11/30 01:15:28;;;;;;;45.95;35.55;;;;;;;-0.25;100.00;97852.28;2038049;29;20222;-73
2021/11/30 01:16:33;;;;;;;40.05;33.90;;;;;;;-0.23;100.00;97859.88;2038831;28;20230;-72
2021/11/30 01:17:35;;;;;;;41.38;33.67;;;;;;;-0.24;100.00;97858.31;2038214;29;20261;-73
2021/11/30 01:18:36;;;;;;;42.55;33.33;;;;;;;-0.20;100.00;97847.06;2030445;29;20303;-73
2021/11/30 01:19:38;;;;;;;40.67;32.90;;;;;;;-0.19;100.00;97850.47;2037537;29;20362;-74
2021/11/30 01:20:40;;;;;;;47.65;34.45;;;;;;;-0.22;100.00;97849.16;2037988;29;20237;-73
2021/11/30 01:21:41;;;;;;;45.60;33.85;;;;;;;-0.22;100.00;97843.91;2037980;29;20231;-73
2021/11/30 01:22:44;;;;;;;42.28;34.75;;;;;;;-0.23;100.00;97855.44;2037975;29;20235;-73
2021/11/30 01:23:46;;;;;;;43.90;34.30;;;;;;;-0.22;100.00;97851.75;2038100;29;20657;-73
2021/11/30 01:24:48;;;;;;;42.20;34.22;;;;;;;-0.20;100.00;97864.59;2037984;29;20604;-73
2021/11/30 01:25:50;;;;;;;45.47;34.08;;;;;;;-0.17;100.00;97859.66;2037939;29;20222;-73
2021/11/30 01:26:52;;;;;;;39.97;33.25;;;;;;;-0.23;100.00;97858.06;2038794;28;20230;-73
2021/11/30 01:27:52;;;;;;;46.92;35.05;;;;;;;-0.23;100.00;97859.88;2037800;28;20285;-73
2021/11/30 01:28:54;;;;;;;47.27;34.97;;;;;;;-0.22;100.00;97866.72;2038770;28;20270;-73
2021/11/30 01:29:57;;;;;;;44.78;33.70;;;;;;;-0.23;100.00;97868.53;2038612;28;20235;-73
2021/11/30 01:31:02;;;;;;;42.40;33.50;;;;;;;-0.24;100.00;97864.34;2037916;29;20253;-72
2021/11/30 01:32:04;;;;;;;48.38;34.65;;;;;;;-0.22;100.00;97870.13;2038211;29;20229;-73
2021/11/30 01:33:07;;;;;;;46.60;36.17;;;;;;;-0.18;100.00;97862.50;2038102;29;20310;-73
2021/11/30 01:34:07;;;;;;;42.83;33.83;;;;;;;-0.21;100.00;97869.06;2037452;29;20238;-73
2021/11/30 01:35:10;;;;;;;44.50;34.87;;;;;;;-0.21;100.00;97866.44;2029992;29;20233;-74
2021/11/30 01:36:11;;;;;;;49.08;34.75;;;;;;;-0.22;100.00;97882.44;2038180;29;20605;-73
2021/11/30 01:37:17;;;;;;;47.13;34.57;;;;;;;-0.29;100.00;97869.53;2038245;29;20297;-73
2021/11/30 01:38:18;;;;;;;44.67;34.20;;;;;;;-0.28;100.00;97868.50;2037852;29;20222;-73
2021/11/30 01:39:19;;;;;;;48.03;36.13;;;;;;;-0.28;100.00;97873.75;2038006;29;20270;-72
2021/11/30 01:40:22;;;;;;;45.78;35.25;;;;;;;-0.29;100.00;97875.56;2038721;28;20802;-73
2021/11/30 01:41:26;;;;;;;48.83;35.00;;;;;;;-0.29;100.00;97869.53;2038332;28;20231;-73
2021/11/30 01:42:28;;;;;;;44.63;34.72;;;;;;;-0.30;100.00;97873.22;2038201;29;20713;-72
2021/11/30 01:43:38;;;;;;;44.72;35.05;;;;;;;-0.28;100.00;97876.38;2038019;29;20235;-73
2021/11/30 01:44:46;;;;;;;51.70;36.53;;;;;;;-0.30;100.00;97875.84;2038434;28;20226;-72
2021/11/30 01:45:58;;;;;;;48.25;36.22;;;;;;;-0.31;100.00;97871.63;2038667;28;20226;-73
2021/11/30 01:47:08;;;;;;;48.67;37.38;;;;;;;-0.32;100.00;97872.69;2038350;28;20226;-72
2021/11/30 01:49:34;;;;;;;48.47;36.88;;;;;;;-0.31;100.00;97879.50;2006242;29;20237;-72
2021/11/30 01:50:39;;;;;;;48.65;38.85;;;;;;;-0.33;100.00;97874.53;2031099;29;20610;-72
2021/11/30 01:51:41;;;;;;;55.92;40.22;;;;;;;-0.32;100.00;97883.16;2030231;29;20247;-72
2021/11/30 01:52:46;;;;;;;56.47;40.67;;;;;;;-0.31;100.00;97869.03;2037946;29;20271;-72
2021/11/30 01:53:48;;;;;;;53.75;39.40;;;;;;;-0.29;100.00;97875.56;2037824;29;20230;-73
2021/11/30 01:54:50;;;;;;;53.72;41.17;;;;;;;-0.30;100.00;97868.75;2037894;29;20273;-72
2021/11/30 01:55:53;;;;;;;58.80;40.70;;;;;;;-0.29;100.00;97885.28;2038082;29;20258;-72
2021/11/30 01:56:56;;;;;;;57.25;41.75;;;;;;;-0.33;100.00;97869.28;2037621;29;20616;-73
2021/11/30 01:57:59;;;;;;;53.40;41.20;;;;;;;-0.34;100.00;97872.94;2038590;28;20248;-73
2021/11/30 01:59:00;;;;;;;52.67;39.13;;;;;;;-0.36;100.00;97875.00;2038763;28;20310;-73
2021/11/30 02:00:02;;;;;;;56.67;39.53;;;;;;;-0.33;100.00;97886.84;2037844;29;20231;-73
2021/11/30 02:01:06;;;;;;;54.90;41.17;;;;;;;-0.34;100.00;97886.06;2038042;29;20223;-73
2021/11/30 02:02:09;;;;;;;52.53;39.47;;;;;;;-0.34;100.00;97890.50;2038243;28;20669;-72
2021/11/30 02:03:10;;;;;;;50.85;40.38;;;;;;;-0.31;100.00;97882.91;2038080;29;20322;-71
2021/11/30 02:04:12;;;;;;;53.10;40.42;;;;;;;-0.31;100.00;97892.59;2038020;29;20612;-74
2021/11/30 02:05:14;;;;;;;57.05;39.78;;;;;;;-0.33;100.00;97884.22;2037875;29;20226;-71
2021/11/30 02:06:16;;;;;;;51.92;38.85;;;;;;;-0.28;100.00;97884.22;2038629;28;20222;-73
2021/11/30 02:07:17;;;;;;;55.42;39.83;;;;;;;-0.30;100.00;97881.88;2038520;28;20230;-73
2021/11/30 02:08:19;;;;;;;55.43;40.53;;;;;;;-0.26;100.00;97887.41;2037713;29;20219;-73
2021/11/30 02:09:19;;;;;;;54.97;39.78;;;;;;;-0.30;100.00;97881.06;2037923;29;20622;-74
2021/11/30 02:10:21;;;;;;;54.40;39.33;;;;;;;-0.27;100.00;97888.41;2038529;28;20219;-73
2021/11/30 02:11:25;;;;;;;50.42;39.30;;;;;;;-0.31;100.00;97869.03;2038052;28;20776;-74
2021/11/30 02:12:28;;;;;;;48.97;37.40;;;;;;;-0.30;100.00;97878.47;2038097;29;20251;-74
2021/11/30 02:13:31;;;;;;;49.33;37.90;;;;;;;-0.29;100.00;97885.28;2030010;29;20278;-73
2021/11/30 02:14:33;;;;;;;53.67;37.80;;;;;;;-0.27;100.00;97885.81;2030112;29;20279;-73
2021/11/30 02:15:40;;;;;;;49.92;39.22;;;;;;;-0.28;100.00;97885.00;2037827;29;20227;-73
2021/11/30 02:16:41;;;;;;;49.97;39.05;;;;;;;-0.31;100.00;97882.91;2037705;29;20720;-73
2021/11/30 02:17:43;;;;;;;52.05;38.03;;;;;;;-0.25;100.00;97894.22;2037885;29;20607;-73
2021/11/30 02:18:47;;;;;;;53.25;36.92;;;;;;;-0.28;100.00;97892.88;2038568;28;20231;-73
2021/11/30 02:19:55;;;;;;;50.47;37.10;;;;;;;-0.28;100.00;97884.22;2038382;28;20287;-73
2021/11/30 02:20:59;;;;;;;49.80;37.85;;;;;;;-0.29;100.00;97893.91;2038236;28;20238;-73
2021/11/30 02:21:59;;;;;;;48.85;37.33;;;;;;;-0.28;100.00;97887.63;2037696;29;20681;-73
2021/11/30 02:23:01;;;;;;;51.03;36.67;;;;;;;-0.24;100.00;97893.16;2038105;29;20633;-73
2021/11/30 02:24:03;;;;;;;52.13;36.38;;;;;;;-0.24;100.00;97901.03;2037753;29;20237;-73
2021/11/30 02:25:06;;;;;;;48.28;38.25;;;;;;;-0.23;100.00;97897.38;2037843;29;20282;-73
2021/11/30 02:26:15;;;;;;;50.38;38.58;;;;;;;-0.24;100.00;97906.28;2037760;29;20222;-73
2021/11/30 02:27:18;;;;;;;47.53;36.88;;;;;;;-0.26;100.00;97899.69;2037686;29;20246;-73
2021/11/30 02:28:19;;;;;;;46.83;37.83;;;;;;;-0.26;100.00;97900.50;2037933;29;20227;-73
2021/11/30 02:29:21;;;;;;;46.95;36.72;;;;;;;-0.24;100.00;97901.03;2030056;29;20227;-73
2021/11/30 02:30:21;;;;;;;49.15;37.95;;;;;;;-0.21;100.00;97905.75;2037481;29;20246;-74
2021/11/30 02:31:25;;;;;;;46.00;35.90;;;;;;;-0.19;100.00;97898.41;2037801;29;20226;-74
2021/11/30 02:32:26;;;;;;;47.95;36.13;;;;;;;-0.19;100.00;97895.00;2038573;28;20700;-72
2021/11/30 02:33:30;;;;;;;50.13;37.42;;;;;;;-0.17;100.00;97892.94;2038607;28;20235;-73
2021/11/30 02:34:32;;;;;;;47.92;37.20;;;;;;;-0.19;100.00;97908.13;2038597;28;20222;-73
2021/11/30 02:35:34;;;;;;;48.17;36.55;;;;;;;-0.19;100.00;97901.03;2037696;29;20266;-73
2021/11/30 02:36:48;;;;;;;46.38;36.95;;;;;;;-0.21;100.00;97903.13;2037714;29;20697;-73
2021/11/30 02:37:50;;;;;;;47.65;35.85;;;;;;;-0.19;100.00;97911.53;2038241;28;20268;-73
2021/11/30 02:38:53;;;;;;;47.65;36.38;;;;;;;-0.12;100.00;97906.06;2038780;28;20231;-73
2021/11/30 02:39:54;;;;;;;48.72;36.75;;;;;;;-0.13;100.00;97905.28;2038678;29;20283;-73
2021/11/30 02:40:56;;;;;;;45.08;35.55;;;;;;;-0.13;100.00;97897.41;2039183;29;20309;-73
2021/11/30 02:41:57;;;;;;;49.55;36.85;;;;;;;-0.14;100.00;97911.56;2039133;29;20231;-73
2021/11/30 02:42:59;;;;;;;48.73;36.73;;;;;;;-0.12;100.00;97911.31;2040000;28;20227;-73
2021/11/30 02:43:59;;;;;;;47.33;35.55;;;;;;;-0.10;100.00;97911.84;2039069;29;21036;-73
2021/11/30 02:45:01;;;;;;;51.00;35.63;;;;;;;-0.14;100.00;97901.09;2039286;29;20637;-72
2021/11/30 02:46:02;;;;;;;53.42;36.83;;;;;;;-0.13;100.00;97912.34;2039952;28;20249;-73
2021/11/30 02:47:06;;;;;;;50.15;36.55;;;;;;;-0.12;100.00;97912.09;2039917;28;20279;-73
2021/11/30 02:48:07;;;;;;;49.90;35.80;;;;;;;-0.14;100.00;97906.31;2039074;29;20227;-73
2021/11/30 02:49:10;;;;;;;48.53;35.33;;;;;;;-0.15;100.00;97906.59;2039217;29;20231;-73
2021/11/30 02:50:11;;;;;;;45.85;35.17;;;;;;;-0.15;100.00;97912.63;2039865;28;20289;-72
2021/11/30 02:51:14;;;;;;;51.27;37.10;;;;;;;-0.14;100.00;97906.31;2039404;29;20235;-73
2021/11/30 02:52:18;;;;;;;50.30;36.13;;;;;;;-0.09;100.00;97916.84;2031704;29;20271;-72
2021/11/30 02:53:21;;;;;;;48.35;35.20;;;;;;;-0.06;100.00;97916.31;2031638;29;20634;-73
2021/11/30 02:54:23;;;;;;;47.65;36.83;;;;;;;-0.08;100.00;97923.66;2038663;29;20321;-73
2021/11/30 02:55:25;;;;;;;49.00;35.67;;;;;;;-0.14;100.00;97916.03;2031686;29;20232;-73
2021/11/30 02:56:27;;;;;;;47.17;36.63;;;;;;;-0.10;100.00;97917.88;2039177;29;20648;-73
2021/11/30 02:57:28;;;;;;;49.95;35.53;;;;;;;-0.08;100.00;97915.81;2039303;29;20229;-73
2021/11/30 02:58:29;;;;;;;45.78;36.63;;;;;;;-0.13;100.00;97915.75;2039101;29;20223;-72
2021/11/30 02:59:33;;;;;;;48.43;37.83;;;;;;;-0.12;100.00;97913.94;2039232;29;20288;-73
2021/11/30 03:00:35;;;;;;;51.90;37.40;;;;;;;-0.08;100.00;97912.38;2039838;28;20273;-73
2021/11/30 03:01:37;;;;;;;47.85;37.20;;;;;;;-0.12;100.00;97911.31;2039189;29;20222;-73
2021/11/30 03:02:38;;;;;;;51.40;36.72;;;;;;;-0.06;100.00;97899.81;2030852;29;20621;-73
2021/11/30 03:03:40;;;;;;;48.58;34.63;;;;;;;-0.07;100.00;97912.13;2039120;29;20230;-73
2021/11/30 03:04:42;;;;;;;48.45;34.30;;;;;;;-0.10;100.00;97923.09;2039802;28;20317;-73
2021/11/30 03:05:44;;;;;;;51.10;35.08;;;;;;;-0.08;100.00;97915.00;2039296;29;20234;-73
2021/11/30 03:06:47;;;;;;;51.25;35.03;;;;;;;-0.07;100.00;97912.13;2038999;29;20218;-73
2021/11/30 03:07:49;;;;;;;51.05;35.97;;;;;;;-0.09;100.00;97914.22;2039794;28;20273;-73
2021/11/30 03:08:50;;;;;;;53.53;35.42;;;;;;;-0.11;100.00;97908.44;2039881;28;20227;-73
2021/11/30 03:09:53;;;;;;;53.80;35.73;;;;;;;-0.12;100.00;97908.69;2039887;28;20223;-73
2021/11/30 03:10:55;;;;;;;48.28;38.15;;;;;;;-0.13;100.00;97912.34;2038617;29;20603;-73
2021/11/30 03:11:57;;;;;;;50.58;36.20;;;;;;;-0.14;100.00;97916.03;2039110;29;20732;-73
2021/11/30 03:12:58;;;;;;;47.20;37.53;;;;;;;-0.14;100.00;97922.06;2039217;29;20280;-73
2021/11/30 03:14:01;;;;;;;48.03;38.40;;;;;;;-0.13;100.00;97918.38;2039124;29;20255;-73
2021/11/30 03:15:08;;;;;;;49.53;37.50;;;;;;;-0.12;100.00;97922.56;2039214;29;20230;-73
2021/11/30 03:16:09;;;;;;;48.80;36.83;;;;;;;-0.10;100.00;97912.63;2031246;29;20298;-73
2021/11/30 03:17:11;;;;;;;47.72;36.83;;;;;;;-0.11;100.00;97911.03;2031255;29;20329;-73
2021/11/30 03:18:13;;;;;;;51.55;40.00;;;;;;;-0.09;100.00;97911.59;2039185;29;20701;-73
2021/11/30 03:19:15;;;;;;;46.70;37.83;;;;;;;-0.07;100.00;97911.34;2039004;29;20227;-73
2021/11/30 03:20:18;;;;;;;43.22;35.13;;;;;;;-0.10;100.00;97909.22;2039280;29;20226;-73
2021/11/30 03:21:20;;;;;;;45.70;36.70;;;;;;;-0.12;100.00;97909.47;2039083;29;20725;-73
2021/11/30 03:22:23;;;;;;;44.45;35.63;;;;;;;-0.15;100.00;97902.13;2039594;28;20555;-73
2021/11/30 03:23:24;;;;;;;44.15;36.28;;;;;;;-0.12;100.00;97919.97;2038580;29;20247;-73
2021/11/30 03:24:26;;;;;;;45.53;36.87;;;;;;;-0.12;100.00;97919.16;2039059;29;20706;-73
2021/11/30 03:25:27;;;;;;;48.03;35.33;;;;;;;-0.14;100.00;97916.03;2039802;28;20250;-73
2021/11/30 03:26:29;;;;;;;47.93;37.40;;;;;;;-0.15;100.00;97915.22;2039852;28;20226;-73
2021/11/30 03:27:30;;;;;;;43.35;36.65;;;;;;;-0.15;100.00;97915.22;2039662;28;20721;-73
2021/11/30 03:28:32;;;;;;;48.20;38.17;;;;;;;-0.16;100.00;97915.50;2039823;28;20314;-73
2021/11/30 03:29:33;;;;;;;43.67;35.85;;;;;;;-0.17;100.00;97912.09;2039177;29;20226;-73
2021/11/30 03:30:37;;;;;;;45.47;36.40;;;;;;;-0.17;100.00;97916.53;2031253;29;20231;-73
2021/11/30 03:31:48;;;;;;;46.28;36.65;;;;;;;-0.17;100.00;97906.84;2031252;29;20599;-73
2021/11/30 03:34:11;;;;;;;46.08;34.60;;;;;;;-0.17;100.00;97917.31;2038601;28;20223;-73
2021/11/30 03:35:12;;;;;;;46.15;36.13;;;;;;;-0.20;100.00;97904.72;2039668;28;20231;-73
2021/11/30 03:36:16;;;;;;;46.93;35.93;;;;;;;-0.21;100.00;97904.97;2039026;29;20262;-73
2021/11/30 03:37:19;;;;;;;44.92;35.83;;;;;;;-0.14;100.00;97906.31;2032007;29;20313;-73
2021/11/30 03:38:22;;;;;;;40.87;35.03;;;;;;;-0.18;100.00;97907.84;2031016;29;20301;-73
2021/11/30 03:39:27;;;;;;;44.90;35.88;;;;;;;-0.19;100.00;97910.75;2030684;29;20238;-73
2021/11/30 03:40:27;;;;;;;47.90;35.80;;;;;;;-0.24;100.00;97901.03;2038962;29;20282;-73
2021/11/30 03:41:32;;;;;;;47.73;35.23;;;;;;;-0.22;100.00;97904.19;2039378;28;20226;-73
2021/11/30 03:42:33;;;;;;;44.20;34.78;;;;;;;-0.23;100.00;97907.06;2038796;29;20257;-73
2021/11/30 03:43:35;;;;;;;44.72;34.58;;;;;;;-0.20;100.00;97906.53;2038720;29;20226;-72
2021/11/30 03:44:36;;;;;;;43.58;35.28;;;;;;;-0.19;100.00;97911.53;2038998;29;20230;-73
2021/11/30 03:45:38;;;;;;;43.67;34.73;;;;;;;-0.21;100.00;97911.00;2038372;29;20716;-74
2021/11/30 03:46:39;;;;;;;42.70;35.40;;;;;;;-0.19;100.00;97915.97;2038787;29;20277;-73
2021/11/30 03:47:40;;;;;;;44.13;34.47;;;;;;;-0.17;100.00;97911.31;2039558;28;20701;-73
2021/11/30 03:48:41;;;;;;;43.53;34.13;;;;;;;-0.17;100.00;97917.31;2038664;29;20310;-73
2021/11/30 03:49:45;;;;;;;42.47;35.88;;;;;;;-0.13;100.00;97907.09;2031099;29;20331;-73
2021/11/30 03:50:46;;;;;;;48.40;35.15;;;;;;;-0.14;100.00;97910.78;2038085;29;20231;-73
2021/11/30 03:51:48;;;;;;;46.73;36.27;;;;;;;-0.12;100.00;97908.69;2039397;28;20332;-73
2021/11/30 03:52:50;;;;;;;40.65;35.78;;;;;;;-0.10;100.00;97915.25;2038830;29;20235;-73
2021/11/30 03:53:52;;;;;;;44.95;34.95;;;;;;;-0.12;100.00;97919.97;2038774;29;20656;-72
2021/11/30 03:54:54;;;;;;;43.63;34.80;;;;;;;-0.12;100.00;97914.72;2039141;28;20222;-73
2021/11/30 03:55:58;;;;;;;41.85;35.90;;;;;;;-0.16;100.00;97907.63;2038811;29;20796;-73
2021/11/30 03:57:05;;;;;;;43.22;36.40;;;;;;;-0.18;100.00;97907.06;2038694;29;20231;-73
2021/11/30 03:58:05;;;;;;;47.53;36.60;;;;;;;-0.16;100.00;97912.88;2038672;29;20706;-72
2021/11/30 03:59:07;;;;;;;42.30;33.70;;;;;;;-0.13;100.00;97926.25;2030865;29;20577;-72
2021/11/30 04:00:10;;;;;;;42.55;33.55;;;;;;;-0.15;100.00;97912.63;2038349;29;20227;-71
2021/11/30 04:01:13;;;;;;;45.35;34.75;;;;;;;-0.16;100.00;97913.66;2039454;28;20419;-71
2021/11/30 04:02:16;;;;;;;43.08;33.40;;;;;;;-0.10;100.00;97917.06;2038800;29;20258;-72
2021/11/30 04:03:18;;;;;;;42.70;32.65;;;;;;;-0.14;100.00;97916.03;2038817;29;20231;-73
2021/11/30 04:04:21;;;;;;;43.55;34.50;;;;;;;-0.16;100.00;97916.28;2038725;29;20227;-72
2021/11/30 04:05:22;;;;;;;44.90;33.70;;;;;;;-0.17;100.00;97916.53;2031316;29;20232;-72
2021/11/30 04:06:24;;;;;;;43.13;33.22;;;;;;;-0.16;100.00;97913.66;2030383;29;20658;-73
2021/11/30 04:07:25;;;;;;;44.08;35.03;;;;;;;-0.14;100.00;97916.81;2030975;29;20591;-72
2021/11/30 04:08:26;;;;;;;43.17;33.65;;;;;;;-0.14;100.00;97914.19;2038623;29;20636;-72
2021/11/30 04:09:32;;;;;;;41.70;32.00;;;;;;;-0.10;100.00;97915.25;2039375;28;20239;-73
2021/11/30 04:10:33;;;;;;;41.78;34.53;;;;;;;-0.11;100.00;97912.88;2039416;28;20218;-73
2021/11/30 04:11:34;;;;;;;45.75;34.35;;;;;;;-0.06;100.00;97920.78;2039295;28;20226;-72
2021/11/30 04:12:36;;;;;;;42.53;34.80;;;;;;;-0.03;100.00;97920.25;2038608;29;20242;-72
2021/11/30 04:13:37;;;;;;;41.95;33.42;;;;;;;-0.06;100.00;97916.31;2038295;29;20343;-73
2021/11/30 04:14:39;;;;;;;41.10;33.63;;;;;;;-0.07;100.00;97916.59;2038422;29;20227;-72
2021/11/30 04:15:39;;;;;;;40.20;32.75;;;;;;;-0.07;100.00;97920.00;2038619;29;20234;-73
2021/11/30 04:16:44;;;;;;;42.27;33.50;;;;;;;-0.03;100.00;97918.44;2038594;29;20234;-73
2021/11/30 04:17:46;;;;;;;44.47;33.40;;;;;;;-0.03;100.00;97923.66;2031142;29;20223;-72
2021/11/30 04:18:48;;;;;;;40.13;32.97;;;;;;;-0.07;100.00;97919.22;2038616;29;20274;-72
2021/11/30 04:19:50;;;;;;;41.97;33.30;;;;;;;-0.07;100.00;97920.00;2039288;28;20678;-73
2021/11/30 04:20:50;;;;;;;44.88;34.05;;;;;;;0.01;100.00;97917.94;2039185;28;20605;-73
2021/11/30 04:21:52;;;;;;;43.00;34.00;;;;;;;0.01;100.00;97923.19;2039044;28;20223;-73
2021/11/30 04:22:54;;;;;;;42.72;33.85;;;;;;;-0.03;100.00;97921.06;2038710;28;20522;-73
2021/11/30 04:23:57;;;;;;;43.70;34.08;;;;;;;-0.01;100.00;97921.56;2039177;28;20686;-72
2021/11/30 04:25:01;;;;;;;41.03;32.92;;;;;;;-0.03;100.00;97939.41;2039119;28;20227;-73
2021/11/30 04:26:02;;;;;;;40.97;33.33;;;;;;;0.02;100.00;97924.75;2039201;28;20222;-72
2021/11/30 04:27:04;;;;;;;44.20;34.53;;;;;;;0.02;100.00;97927.38;2039237;28;20222;-72
2021/11/30 04:28:05;;;;;;;44.70;33.30;;;;;;;0.01;100.00;97928.44;2038427;29;20733;-72
2021/11/30 04:29:07;;;;;;;43.90;33.10;;;;;;;0.00;100.00;97922.41;2030805;29;20560;-73
2021/11/30 04:30:12;;;;;;;40.47;33.00;;;;;;;0.04;100.00;97933.16;2037989;29;20230;-73
2021/11/30 04:31:16;;;;;;;41.78;32.58;;;;;;;0.06;100.00;97936.28;2045967;28;20222;-72
2021/11/30 04:32:18;;;;;;;45.25;34.33;;;;;;;0.06;100.00;97936.28;2038473;29;20227;-73
2021/11/30 04:33:19;;;;;;;44.05;33.28;;;;;;;0.01;100.00;97923.19;2030643;29;20292;-73
2021/11/30 04:34:22;;;;;;;42.85;33.92;;;;;;;0.03;100.00;97926.31;2038527;29;20246;-72
2021/11/30 04:35:23;;;;;;;39.10;33.88;;;;;;;0.08;100.00;97924.50;2038777;28;20223;-73
2021/11/30 04:36:25;;;;;;;42.80;33.08;;;;;;;0.06;100.00;97915.31;2038498;29;20285;-72
2021/11/30 04:37:28;;;;;;;41.20;33.80;;;;;;;0.05;100.00;97924.22;2038419;29;20226;-73
2021/11/30 04:38:30;;;;;;;43.55;33.22;;;;;;;0.05;100.00;97919.78;2037871;29;20629;-73
2021/11/30 04:39:33;;;;;;;39.67;32.22;;;;;;;0.02;100.00;97920.28;2030786;29;20302;-72
2021/11/30 04:40:36;;;;;;;41.15;32.80;;;;;;;0.02;100.00;97922.13;2038407;29;20233;-72
2021/11/30 04:41:37;;;;;;;38.92;32.40;;;;;;;0.02;100.00;97932.63;2038433;28;20227;-73
2021/11/30 04:42:41;;;;;;;39.23;32.20;;;;;;;0.09;100.00;97926.09;2038971;28;20282;-73
2021/11/30 04:43:42;;;;;;;42.53;32.22;;;;;;;0.10;100.00;97930.31;2038875;28;20317;-73
2021/11/30 04:44:52;;;;;;;39.83;31.90;;;;;;;0.04;100.00;97927.91;2039145;28;20227;-72
2021/11/30 04:45:56;;;;;;;40.08;31.63;;;;;;;0.01;100.00;97918.72;2037944;29;20587;-73
2021/11/30 04:47:00;;;;;;;40.95;32.63;;;;;;;0.03;100.00;97921.88;2038449;29;20713;-72
2021/11/30 04:48:01;;;;;;;40.22;32.08;;;;;;;-0.02;100.00;97917.38;2038545;29;20239;-71
2021/11/30 04:49:12;;;;;;;44.80;31.93;;;;;;;0.04;100.00;97926.06;2038240;29;20780;-72
2021/11/30 04:50:16;;;;;;;41.45;32.67;;;;;;;0.03;100.00;97926.31;2037742;29;20222;-73